Nordoern — LLIG — position and weather

sailwx.info

Track history (hours):
 
Tides and Currents Weather Stations Pressure Air Temp Water Temp Dewpoint Dewpoint Depression Visibility Wind Speed Wind Dir Waves Ship Positions

Nordoern

Last reported at 2017-Nov-15 20:58 UTC. Time now 2017-Nov-19 06:38 UTC.
Position N 71°06' E 022°05'.

Length 40 m; draft 6.5 m.

Type: Fishing. MMSI: 257248000.

Date/timePositionNaut miles runAvg speedWind from/ knotsBaromVisibWave heightAir tempDewpointWater temp
2017-Nov-15 20:58N 71°06' E 022°05'510.1
2017-Nov-15 20:30N 71°03' E 022°14'5 9.7
2017-Nov-15 20:00N 70°59' E 022°23'5 9.2
2017-Nov-15 19:30N 70°54' E 022°19'5 9.2
2017-Nov-15 19:00N 70°51' E 022°11'4 8.0
2017-Nov-15 18:30N 70°54' E 022°16'4 7.6
2017-Nov-15 18:00N 70°58' E 022°21'1 2.7
2017-Nov-15 17:30N 70°57' E 022°25'0 0.4
2017-Nov-15 17:00N 70°58' E 022°25'1 1.6
2017-Nov-15 16:30N 70°58' E 022°22'1 2.7
2017-Nov-15 16:00N 70°56' E 022°20'2 4.1
2017-Nov-15 15:30N 70°55' E 022°15'2 3.1
2017-Nov-15 15:00N 70°54' E 022°15'1 2.0
2017-Nov-15 14:30N 70°53' E 022°13'2 3.1
2017-Nov-15 14:00N 70°54' E 022°16'2 3.7
2017-Nov-15 13:30N 70°56' E 022°20'1 1.1
2017-Nov-15 13:00N 70°56' E 022°21'1 2.0
2017-Nov-15 12:31N 70°56' E 022°18'2 4.2
2017-Nov-15 12:00N 70°54' E 022°13'0 0.6
2017-Nov-15 11:30N 70°55' E 022°14'2 3.2
2017-Nov-15 11:01N 70°56' E 022°17'1 2.9
2017-Nov-15 10:30N 70°57' E 022°21'2 4.7
2017-Nov-15 10:00N 70°55' E 022°15'1 2.3
2017-Nov-15 09:30N 70°54' E 022°14'1 1.5
2017-Nov-15 09:00N 70°54' E 022°12'1 1.7
2017-Nov-15 08:30N 70°54' E 022°14'2 3.3
2017-Nov-15 08:00N 70°53' E 022°19'1 1.3
2017-Nov-15 07:30N 70°53' E 022°19'2 3.5
2017-Nov-15 07:00N 70°54' E 022°15'2 3.5
2017-Nov-15 06:30N 70°53' E 022°11'2 3.6
2017-Nov-15 05:59N 70°54' E 022°16'3 5.3
2017-Nov-15 05:30N 70°56' E 022°20'0 1.0
2017-Nov-15 05:00N 70°56' E 022°19'2 3.8
2017-Nov-15 04:30N 70°55' E 022°14'1 1.8
2017-Nov-15 04:00N 70°55' E 022°17'2 3.9
2017-Nov-15 03:30N 70°56' E 022°21'1 2.1
2017-Nov-15 03:00N 70°56' E 022°18'2 3.7
2017-Nov-15 02:30N 70°55' E 022°14'2 3.6
2017-Nov-15 02:00N 70°53' E 022°10'1 2.2
2017-Nov-15 01:30N 70°52' E 022°10'1 2.2
2017-Nov-15 01:00N 70°53' E 022°10'1 2.9
2017-Nov-15 00:30N 70°55' E 022°11'1 3.0
2017-Nov-15 00:00N 70°56' E 022°10'2 3.4
2017-Nov-14 23:30N 70°57' E 022°15'2 3.3
2017-Nov-14 23:00N 70°58' E 022°20'2 3.3
2017-Nov-14 22:30N 70°58' E 022°24'2 3.2
2017-Nov-14 22:00N 70°60' E 022°28'2 3.4
2017-Nov-14 21:30N 71°00' E 022°32'1 2.3
2017-Nov-14 21:00N 71°01' E 022°35'4 7.9
2017-Nov-14 20:30N 71°02' E 022°47'2 3.2
2017-Nov-14 20:00N 71°02' E 022°42'2 3.2
2017-Nov-14 19:29N 71°01' E 022°38'2 3.8
2017-Nov-14 19:00N 71°01' E 022°32'2 3.2
2017-Nov-14 18:30N 71°02' E 022°31'2 3.7
2017-Nov-14 17:59N 71°04' E 022°35'2 3.7
2017-Nov-14 17:30N 71°05' E 022°37'2 3.9
2017-Nov-14 17:00N 71°07' E 022°40'2 3.6
2017-Nov-14 16:30N 71°08' E 022°44'2 3.7
2017-Nov-14 16:00N 71°07' E 022°49'2 3.7
2017-Nov-14 15:30N 71°05' E 022°52'2 3.7
2017-Nov-14 15:00N 71°04' E 022°55'2 3.0
2017-Nov-14 14:30N 71°02' E 022°55'2 3.9
2017-Nov-14 14:00N 71°02' E 022°49'2 3.4
2017-Nov-14 13:30N 71°02' E 022°44'2 4.2
2017-Nov-14 13:00N 71°02' E 022°38'2 4.4
2017-Nov-14 12:30N 71°00' E 022°32'3 5.9
2017-Nov-14 12:00N 70°58' E 022°26'2 4.9
2017-Nov-14 11:30N 70°57' E 022°21'2 3.9
2017-Nov-14 11:00N 70°56' E 022°16'2 4.1
2017-Nov-14 10:30N 70°54' E 022°12'0 0.1
2017-Nov-14 10:00N 70°54' E 022°12'2 3.3
2017-Nov-14 09:30N 70°55' E 022°15'2 3.2
2017-Nov-14 09:00N 70°56' E 022°19'1 1.4
2017-Nov-14 08:30N 70°56' E 022°21'2 4.5
2017-Nov-14 08:00N 70°55' E 022°17'1 2.2
2017-Nov-14 07:30N 70°54' E 022°13'2 3.2
2017-Nov-14 07:00N 70°56' E 022°17'1 2.2
2017-Nov-14 06:30N 70°56' E 022°20'0 0.9
2017-Nov-14 06:01N 70°56' E 022°19'2 3.5
2017-Nov-14 05:30N 70°55' E 022°14'0 0.4
2017-Nov-14 05:00N 70°55' E 022°14'2 3.9
2017-Nov-14 04:30N 70°56' E 022°19'2 4.0
2017-Nov-14 04:00N 70°57' E 022°23'0 0.4
2017-Nov-14 03:30N 70°57' E 022°22'0 1.0
2017-Nov-14 03:00N 70°58' E 022°23'1 1.1
2017-Nov-14 02:30N 70°57' E 022°22'1 2.5
2017-Nov-14 02:00N 70°58' E 022°25'2 3.9
2017-Nov-14 01:30N 70°57' E 022°20'0 1.0
2017-Nov-14 01:00N 70°57' E 022°19'1 2.6
2017-Nov-14 00:30N 70°57' E 022°23'2 3.6
2017-Nov-14 00:00N 70°58' E 022°27'2 3.7
2017-Nov-13 23:30N 70°57' E 022°23'2 4.3
2017-Nov-13 23:00N 70°56' E 022°18'2 4.2
2017-Nov-13 22:30N 70°55' E 022°13'1 2.4
2017-Nov-13 22:00N 70°55' E 022°17'0 0.0
2017-Nov-13 02:01N 70°55' E 022°17'1 1.6
2017-Nov-13 01:30N 70°55' E 022°14'2 3.7
2017-Nov-13 01:00N 70°56' E 022°18'2 3.5
2017-Nov-13 00:30N 70°57' E 022°22'2 3.5
2017-Nov-13 00:01N 70°58' E 022°27'1 1.3
2017-Nov-12 23:30N 70°58' E 022°25'2 4.2
2017-Nov-12 23:00N 70°56' E 022°20'2 4.4
2017-Nov-12 22:30N 70°55' E 022°15'2 4.3
2017-Nov-12 22:00N 70°53' E 022°12'1 1.6
2017-Nov-12 21:30N 70°53' E 022°14'1 2.9
2017-Nov-12 21:00N 70°52' E 022°18'1 2.8
2017-Nov-12 20:30N 70°51' E 022°15'2 3.4
2017-Nov-12 20:01N 70°51' E 022°10'1 2.5
2017-Nov-12 19:30N 70°51' E 022°07'2 4.2
2017-Nov-12 19:00N 70°53' E 022°10'4 7.6
2017-Nov-12 18:30N 70°54' E 022°21'1 2.7
2017-Nov-12 18:00N 70°53' E 022°17'2 3.3
2017-Nov-12 17:30N 70°53' E 022°12'1 2.3
2017-Nov-12 17:00N 70°54' E 022°15'1 1.5
2017-Nov-12 16:31N 70°54' E 022°13'2 3.1
2017-Nov-12 16:00N 70°54' E 022°18'2 3.4
2017-Nov-12 15:30N 70°56' E 022°20'2 3.6
2017-Nov-12 15:00N 70°55' E 022°17'1 1.7
2017-Nov-12 14:30N 70°55' E 022°14'2 3.7
2017-Nov-12 14:00N 70°56' E 022°18'1 2.1
2017-Nov-12 13:30N 70°56' E 022°21'2 4.1
2017-Nov-12 13:00N 70°55' E 022°17'2 3.6
2017-Nov-12 12:30N 70°54' E 022°13'2 3.9
2017-Nov-12 12:00N 70°52' E 022°10'1 1.8
2017-Nov-12 11:30N 70°51' E 022°10'1 1.3
2017-Nov-12 11:00N 70°52' E 022°10'1 2.7
2017-Nov-12 10:30N 70°53' E 022°11'3 5.7
2017-Nov-12 10:00N 70°55' E 022°16'3 5.4
2017-Nov-12 09:30N 70°57' E 022°21'2 3.8
2017-Nov-12 09:00N 70°58' E 022°27'1 1.9
2017-Nov-12 08:30N 70°59' E 022°28'2 3.1
2017-Nov-12 08:00N 70°58' E 022°25'2 4.7
2017-Nov-12 07:30N 70°56' E 022°19'2 4.5
2017-Nov-12 07:00N 70°55' E 022°14'2 4.3
2017-Nov-12 06:30N 70°53' E 022°11'2 4.4
2017-Nov-12 06:00N 70°51' E 022°08'2 4.2
2017-Nov-12 05:30N 70°53' E 022°11'4 7.5
2017-Nov-12 05:00N 70°55' E 022°21'2 4.0
2017-Nov-12 04:31N 70°54' E 022°15'1 2.3
2017-Nov-12 04:00N 70°53' E 022°12'2 3.4
2017-Nov-12 03:30N 70°54' E 022°17'2 3.1
2017-Nov-12 03:00N 70°53' E 022°13'2 3.1
2017-Nov-12 02:30N 70°52' E 022°14'2 3.5
2017-Nov-12 02:00N 70°51' E 022°10'1 2.4
2017-Nov-12 01:30N 70°52' E 022°11'1 2.2
2017-Nov-12 01:00N 70°53' E 022°10'1 1.3
2017-Nov-12 00:30N 70°53' E 022°12'1 1.2
2017-Nov-12 00:00N 70°54' E 022°13'1 1.5
2017-Nov-11 23:30N 70°54' E 022°11'1 1.3
2017-Nov-11 23:00N 70°53' E 022°10'2 3.3
2017-Nov-11 22:30N 70°53' E 022°15'1 2.8
2017-Nov-11 22:00N 70°53' E 022°19'1 2.3
2017-Nov-11 21:30N 70°52' E 022°16'2 4.7
2017-Nov-11 21:00N 70°51' E 022°09'3 5.9
2017-Nov-11 20:30N 70°54' E 022°11'2 3.3
2017-Nov-11 20:00N 70°55' E 022°15'1 2.1
2017-Nov-11 19:30N 70°56' E 022°18'1 1.8
2017-Nov-11 19:00N 70°56' E 022°20'2 4.7
2017-Nov-11 18:30N 70°54' E 022°16'1 1.4
2017-Nov-11 18:01N 70°54' E 022°14'2 3.5
2017-Nov-11 17:30N 70°53' E 022°11'1 2.1
2017-Nov-11 17:00N 70°53' E 022°12'1 2.1
2017-Nov-11 16:29N 70°54' E 022°15'0 0.8
2017-Nov-11 16:00N 70°53' E 022°16'2 4.4
2017-Nov-11 15:30N 70°52' E 022°12'2 3.0
2017-Nov-11 15:00N 70°51' E 022°09'1 2.8
2017-Nov-11 14:30N 70°52' E 022°10'1 2.5
2017-Nov-11 14:00N 70°53' E 022°11'1 2.3
2017-Nov-11 13:30N 70°54' E 022°14'1 2.7
2017-Nov-11 13:00N 70°54' E 022°18'0 0.5
2017-Nov-11 12:30N 70°54' E 022°17'2 4.0
2017-Nov-11 12:00N 70°53' E 022°12'0 0.6
2017-Nov-11 11:30N 70°54' E 022°12'2 3.6
2017-Nov-11 11:00N 70°55' E 022°15'2 3.6
2017-Nov-11 10:30N 70°56' E 022°19'1 2.7
2017-Nov-11 10:00N 70°57' E 022°23'1 1.4
2017-Nov-11 09:30N 70°57' E 022°21'2 3.4
2017-Nov-11 09:00N 70°55' E 022°18'2 4.4
2017-Nov-11 08:30N 70°54' E 022°13'0 0.8
2017-Nov-11 08:00N 70°54' E 022°12'4 7.8
2017-Nov-11 07:30N 70°57' E 022°20'4 7.8
2017-Nov-11 07:00N 70°58' E 022°30'4 8.0
2017-Nov-11 06:30N 71°00' E 022°41'4 8.4
2017-Nov-11 06:00N 71°01' E 022°54'1 1.6
2017-Nov-11 05:30N 71°01' E 022°52'2 4.0
2017-Nov-11 05:00N 71°00' E 022°46'2 4.1
2017-Nov-11 04:30N 71°00' E 022°40'2 4.1
2017-Nov-11 04:00N 70°59' E 022°34'2 4.2
2017-Nov-11 03:30N 70°58' E 022°28'2 4.4
2017-Nov-11 03:00N 70°57' E 022°22'3 6.3
2017-Nov-11 02:30N 70°56' E 022°14'1 1.4
2017-Nov-11 02:01N 70°55' E 022°16'2 3.3
2017-Nov-11 01:30N 70°56' E 022°20'1 2.7
2017-Nov-11 01:00N 70°56' E 022°17'2 4.3
2017-Nov-11 00:30N 70°54' E 022°12'0 0.6
2017-Nov-10 23:59N 70°54' E 022°13'1 1.8
2017-Nov-10 23:30N 70°53' E 022°12'1 2.3
2017-Nov-10 23:00N 70°53' E 022°08'1 2.0
2017-Nov-10 22:30N 70°54' E 022°11'1 1.9
2017-Nov-10 22:00N 70°54' E 022°14'2 3.9
2017-Nov-10 21:30N 70°55' E 022°18'3 5.9
2017-Nov-10 21:01N 70°58' E 022°24'1 1.7
2017-Nov-10 20:30N 70°58' E 022°21'1 1.2
2017-Nov-10 20:00N 70°57' E 022°23'0 0.8
2017-Nov-10 19:30N 70°57' E 022°23'2 4.4
2017-Nov-10 19:00N 70°56' E 022°18'2 4.3
2017-Nov-10 18:30N 70°54' E 022°13'2 4.7
2017-Nov-10 18:00N 70°52' E 022°10'4 7.5
2017-Nov-10 17:30N 70°55' E 022°18'3 5.6
2017-Nov-10 17:00N 70°57' E 022°23'2 3.9
2017-Nov-10 16:30N 70°56' E 022°19'2 4.3
2017-Nov-10 16:00N 70°54' E 022°15'2 4.0
2017-Nov-10 15:30N 70°53' E 022°10'2 4.3
2017-Nov-10 15:00N 70°51' E 022°08'2 3.1
2017-Nov-10 14:30N 70°52' E 022°10'0 0.8
2017-Nov-10 14:00N 70°52' E 022°09'1 1.4
2017-Nov-10 13:29N 70°51' E 022°09'1 2.6
2017-Nov-10 13:00N 70°52' E 022°09'2 4.9
2017-Nov-10 12:30N 70°54' E 022°14'1 2.2
2017-Nov-10 12:00N 70°55' E 022°15'2 3.5
2017-Nov-10 11:30N 70°56' E 022°19'1 1.4
2017-Nov-10 11:00N 70°56' E 022°18'2 3.7
2017-Nov-10 10:30N 70°55' E 022°14'1 1.8
2017-Nov-10 10:00N 70°54' E 022°12'1 1.6
2017-Nov-10 09:30N 70°54' E 022°13'2 4.8
2017-Nov-10 09:00N 70°52' E 022°11'1 1.7
2017-Nov-10 08:30N 70°51' E 022°10'1 2.4
2017-Nov-10 08:00N 70°52' E 022°12'1 1.5
2017-Nov-10 07:30N 70°53' E 022°13'0 0.8
2017-Nov-10 07:00N 70°53' E 022°14'1 1.0
2017-Nov-10 06:30N 70°53' E 022°15'0 0.6
2017-Nov-10 06:00N 70°53' E 022°16'1 1.4
2017-Nov-10 05:30N 70°54' E 022°16'1 1.6
2017-Nov-10 05:00N 70°53' E 022°14'1 3.0
2017-Nov-10 04:31N 70°52' E 022°10'2 4.4
2017-Nov-10 04:00N 70°50' E 022°08'2 3.1
2017-Nov-10 03:30N 70°52' E 022°10'3 6.6
2017-Nov-10 03:01N 70°55' E 022°14'2 4.9
2017-Nov-10 02:30N 70°53' E 022°10'2 4.2
2017-Nov-10 02:00N 70°50' E 022°09'1 2.3
2017-Nov-10 01:30N 70°51' E 022°11'1 2.0
2017-Nov-10 01:00N 70°52' E 022°09'2 4.0
2017-Nov-10 00:30N 70°54' E 022°11'4 7.2
2017-Nov-09 23:59N 70°56' E 022°19'1 1.3
2017-Nov-09 23:30N 70°56' E 022°19'2 3.7
2017-Nov-09 23:00N 70°55' E 022°14'0 0.2
2017-Nov-09 22:30N 70°55' E 022°14'2 3.7
2017-Nov-09 22:00N 70°56' E 022°18'1 1.3
2017-Nov-09 21:30N 70°56' E 022°20'2 3.6
2017-Nov-09 21:00N 70°55' E 022°15'1 2.5
2017-Nov-09 20:30N 70°54' E 022°14'4 7.9
2017-Nov-09 20:01N 70°51' E 022°08'3 5.2
2017-Nov-09 19:30N 70°53' E 022°11'2 3.5
2017-Nov-09 19:00N 70°54' E 022°16'2 3.3
2017-Nov-09 18:30N 70°53' E 022°12'1 2.2
2017-Nov-09 18:00N 70°54' E 022°14'2 4.1
2017-Nov-09 17:31N 70°55' E 022°19'1 2.6
2017-Nov-09 17:00N 70°55' E 022°15'2 3.0
2017-Nov-09 16:30N 70°56' E 022°19'1 2.4
2017-Nov-09 16:00N 70°57' E 022°21'3 5.4
2017-Nov-09 15:30N 70°59' E 022°27'2 4.2
2017-Nov-09 15:00N 70°57' E 022°23'2 4.5
2017-Nov-09 14:30N 70°55' E 022°19'2 4.3
2017-Nov-09 14:00N 70°54' E 022°14'2 3.8
2017-Nov-09 13:30N 70°53' E 022°09'1 1.4
2017-Nov-09 13:00N 70°52' E 022°09'2 3.1
2017-Nov-09 12:30N 70°53' E 022°13'1 2.4
2017-Nov-09 12:00N 70°54' E 022°16'2 3.5
2017-Nov-09 11:30N 70°53' E 022°11'1 2.5
2017-Nov-09 11:00N 70°54' E 022°14'0 0.9
2017-Nov-09 10:30N 70°54' E 022°13'2 3.7
2017-Nov-09 10:00N 70°54' E 022°18'2 3.1
2017-Nov-09 09:30N 70°56' E 022°20'1 1.1
2017-Nov-09 09:00N 70°56' E 022°21'1 1.4
2017-Nov-09 08:30N 70°57' E 022°21'1 3.0
2017-Nov-09 08:00N 70°56' E 022°18'2 3.6
2017-Nov-09 07:30N 70°55' E 022°13'1 1.4
2017-Nov-09 07:00N 70°55' E 022°15'2 3.6
2017-Nov-09 06:30N 70°56' E 022°19'1 2.1
2017-Nov-09 06:00N 70°56' E 022°16'1 1.5
2017-Nov-09 05:30N 70°55' E 022°15'4 7.8
2017-Nov-09 05:00N 70°52' E 022°09'1 2.1
2017-Nov-09 04:30N 70°53' E 022°11'2 3.4
2017-Nov-09 04:00N 70°54' E 022°13'2 3.2
2017-Nov-09 03:30N 70°55' E 022°17'2 3.2
2017-Nov-09 03:00N 70°56' E 022°21'1 2.9
2017-Nov-09 02:30N 70°57' E 022°23'2 3.0
2017-Nov-09 02:00N 70°58' E 022°27'2 3.2
2017-Nov-09 01:30N 70°59' E 022°31'2 3.3
2017-Nov-09 01:00N 70°60' E 022°36'0 0.8
2017-Nov-09 00:31N 70°59' E 022°35'2 4.5
2017-Nov-09 00:01N 70°58' E 022°29'2 4.2
2017-Nov-08 23:30N 70°58' E 022°23'1 3.0
2017-Nov-08 23:00N 70°56' E 022°20'2 3.7
2017-Nov-08 22:30N 70°55' E 022°16'1 2.7
2017-Nov-08 22:00N 70°54' E 022°13'2 3.9
2017-Nov-08 21:30N 70°56' E 022°17'2 3.6
2017-Nov-08 21:00N 70°57' E 022°21'2 3.5
2017-Nov-08 20:30N 70°56' E 022°17'2 3.7
2017-Nov-08 20:00N 70°54' E 022°13'1 3.0
2017-Nov-08 19:30N 70°55' E 022°16'1 1.6
2017-Nov-08 19:00N 70°55' E 022°18'1 3.0
2017-Nov-08 18:30N 70°54' E 022°16'2 3.1
2017-Nov-08 18:00N 70°53' E 022°13'0 0.9
2017-Nov-08 17:30N 70°53' E 022°14'1 2.8
2017-Nov-08 17:00N 70°53' E 022°18'1 1.2
2017-Nov-08 16:30N 70°53' E 022°19'2 3.5
2017-Nov-08 16:00N 70°53' E 022°14'0 0.4
2017-Nov-08 15:30N 70°53' E 022°14'1 3.0
2017-Nov-08 15:00N 70°54' E 022°18'2 4.0
2017-Nov-08 14:30N 70°53' E 022°12'1 2.4
2017-Nov-08 14:00N 70°54' E 022°15'0 0.3
2017-Nov-08 13:30N 70°54' E 022°15'3 3.9
2017-Nov-08 12:49N 70°52' E 022°10'0 1.0
2017-Nov-08 12:30N 70°52' E 022°10'0 0.2
2017-Nov-08 11:59N 70°52' E 022°10'2 3.9
2017-Nov-08 11:30N 70°54' E 022°14'2 3.7
2017-Nov-08 11:00N 70°52' E 022°17'3 5.4
2017-Nov-08 10:31N 70°51' E 022°10'3 6.9
2017-Nov-08 10:00N 70°54' E 022°13'0 0.8
2017-Nov-08 09:30N 70°54' E 022°15'2 3.7
2017-Nov-08 09:00N 70°55' E 022°19'2 4.1
2017-Nov-08 08:30N 70°57' E 022°23'2 3.4
2017-Nov-08 08:00N 70°56' E 022°20'2 3.5
2017-Nov-08 07:30N 70°54' E 022°16'1 1.2
2017-Nov-08 07:00N 70°54' E 022°14'2 3.9
2017-Nov-08 06:30N 70°55' E 022°19'2 3.2
2017-Nov-08 06:00N 70°57' E 022°22'2 3.9
2017-Nov-08 05:30N 70°55' E 022°18'3 5.6
2017-Nov-08 05:00N 70°57' E 022°24'4 7.1
2017-Nov-08 04:30N 70°59' E 022°34'3 6.9
2017-Nov-08 04:00N 71°00' E 022°43'0 0.4
2017-Nov-08 03:30N 71°00' E 022°44'2 4.2
2017-Nov-08 03:00N 70°60' E 022°38'2 4.3
2017-Nov-08 02:30N 70°59' E 022°32'2 4.4
2017-Nov-08 02:00N 70°58' E 022°26'2 4.6
2017-Nov-08 01:30N 70°56' E 022°20'2 4.1
2017-Nov-08 01:00N 70°55' E 022°15'2 4.0
2017-Nov-08 00:27N 70°53' E 022°11'2 3.8
2017-Nov-08 00:00N 70°52' E 022°10'2 3.9
2017-Nov-07 23:22N 70°50' E 022°08'2 4.8
2017-Nov-07 23:00N 70°51' E 022°04'5 9.4
2017-Nov-07 22:29N 70°50' E 021°49'5 9.4
2017-Nov-07 22:00N 70°48' E 021°36'20 9.6
2017-Nov-07 19:53N 70°41' E 020°38'4 9.1
2017-Nov-07 19:30N 70°41' E 020°27'1 3.0
2017-Nov-07 19:00N 70°41' E 020°23'3 6.3
2017-Nov-07 18:30N 70°41' E 020°33'3 5.2
2017-Nov-07 18:00N 70°40' E 020°40'2 4.3
2017-Nov-07 17:30N 70°39' E 020°46'1 1.2
2017-Nov-07 17:00N 70°39' E 020°44'1 1.8
2017-Nov-07 16:30N 70°38' E 020°41'0 0.8
2017-Nov-07 16:00N 70°39' E 020°40'2 3.4
2017-Nov-07 15:30N 70°40' E 020°40'2 3.4
2017-Nov-07 15:00N 70°41' E 020°35'2 3.8
2017-Nov-07 14:30N 70°41' E 020°29'2 4.2
2017-Nov-07 14:00N 70°41' E 020°23'1 2.3
2017-Nov-07 13:30N 70°41' E 020°26'3 5.5
2017-Nov-07 13:00N 70°41' E 020°35'2 3.7
2017-Nov-07 12:30N 70°41' E 020°29'1 2.9
2017-Nov-07 12:00N 70°41' E 020°25'2 4.0
2017-Nov-07 11:30N 70°40' E 020°19'2 4.1
2017-Nov-07 11:00N 70°40' E 020°14'1 2.9
2017-Nov-07 10:31N 70°39' E 020°10'2 3.9
2017-Nov-07 10:00N 70°39' E 020°04'2 3.9
2017-Nov-07 09:30N 70°39' E 019°58'2 3.7
2017-Nov-07 08:59N 70°39' E 019°52'2 3.6
2017-Nov-07 08:30N 70°39' E 019°47'2 4.8
2017-Nov-07 08:00N 70°40' E 019°40'11 0.4
2017-Nov-06 02:30N 70°33' E 019°17'2 3.9
2017-Nov-06 02:00N 70°34' E 019°11'2 4.1
2017-Nov-06 01:30N 70°34' E 019°06'2 4.2
2017-Nov-06 01:01N 70°34' E 018°59'2 4.3
2017-Nov-06 00:30N 70°35' E 018°53'1 1.8
2017-Nov-05 23:42N 70°35' E 018°49'11 9.3
2017-Nov-05 22:34N 70°27' E 018°29'110.3
2017-Nov-05 22:30N 70°26' E 018°29'510.0
2017-Nov-05 22:00N 70°22' E 018°20'611.0
2017-Nov-05 21:30N 70°18' E 018°08'  
Track history (hours):
 
Tides and Currents Weather Stations Pressure Air Temp Water Temp Dewpoint Dewpoint Depression Visibility Wind Speed Wind Dir Waves Ship Positions

Nordoern

Last reported at 2017-Nov-15 20:58 UTC. Time now 2017-Nov-19 06:38 UTC.
Position N 71°06' E 022°05'.

Length 40 m; draft 6.5 m.

Type: Fishing. MMSI: 257248000.

Date/timePositionNaut miles runAvg speedWind from/ knotsBaromVisibWave heightAir tempDewpointWater temp
2017-Nov-15 20:58N 71°06' E 022°05'510.1
2017-Nov-15 20:30N 71°03' E 022°14'5 9.7
2017-Nov-15 20:00N 70°59' E 022°23'5 9.2
2017-Nov-15 19:30N 70°54' E 022°19'5 9.2
2017-Nov-15 19:00N 70°51' E 022°11'4 8.0
2017-Nov-15 18:30N 70°54' E 022°16'4 7.6
2017-Nov-15 18:00N 70°58' E 022°21'1 2.7
2017-Nov-15 17:30N 70°57' E 022°25'0 0.4
2017-Nov-15 17:00N 70°58' E 022°25'1 1.6
2017-Nov-15 16:30N 70°58' E 022°22'1 2.7
2017-Nov-15 16:00N 70°56' E 022°20'2 4.1
2017-Nov-15 15:30N 70°55' E 022°15'2 3.1
2017-Nov-15 15:00N 70°54' E 022°15'1 2.0
2017-Nov-15 14:30N 70°53' E 022°13'2 3.1
2017-Nov-15 14:00N 70°54' E 022°16'2 3.7
2017-Nov-15 13:30N 70°56' E 022°20'1 1.1
2017-Nov-15 13:00N 70°56' E 022°21'1 2.0
2017-Nov-15 12:31N 70°56' E 022°18'2 4.2
2017-Nov-15 12:00N 70°54' E 022°13'0 0.6
2017-Nov-15 11:30N 70°55' E 022°14'2 3.2
2017-Nov-15 11:01N 70°56' E 022°17'1 2.9
2017-Nov-15 10:30N 70°57' E 022°21'2 4.7
2017-Nov-15 10:00N 70°55' E 022°15'1 2.3
2017-Nov-15 09:30N 70°54' E 022°14'1 1.5
2017-Nov-15 09:00N 70°54' E 022°12'1 1.7
2017-Nov-15 08:30N 70°54' E 022°14'2 3.3
2017-Nov-15 08:00N 70°53' E 022°19'1 1.3
2017-Nov-15 07:30N 70°53' E 022°19'2 3.5
2017-Nov-15 07:00N 70°54' E 022°15'2 3.5
2017-Nov-15 06:30N 70°53' E 022°11'2 3.6
2017-Nov-15 05:59N 70°54' E 022°16'3 5.3
2017-Nov-15 05:30N 70°56' E 022°20'0 1.0
2017-Nov-15 05:00N 70°56' E 022°19'2 3.8
2017-Nov-15 04:30N 70°55' E 022°14'1 1.8
2017-Nov-15 04:00N 70°55' E 022°17'2 3.9
2017-Nov-15 03:30N 70°56' E 022°21'1 2.1
2017-Nov-15 03:00N 70°56' E 022°18'2 3.7
2017-Nov-15 02:30N 70°55' E 022°14'2 3.6
2017-Nov-15 02:00N 70°53' E 022°10'1 2.2
2017-Nov-15 01:30N 70°52' E 022°10'1 2.2
2017-Nov-15 01:00N 70°53' E 022°10'1 2.9
2017-Nov-15 00:30N 70°55' E 022°11'1 3.0
2017-Nov-15 00:00N 70°56' E 022°10'2 3.4
2017-Nov-14 23:30N 70°57' E 022°15'2 3.3
2017-Nov-14 23:00N 70°58' E 022°20'2 3.3
2017-Nov-14 22:30N 70°58' E 022°24'2 3.2
2017-Nov-14 22:00N 70°60' E 022°28'2 3.4
2017-Nov-14 21:30N 71°00' E 022°32'1 2.3
2017-Nov-14 21:00N 71°01' E 022°35'4 7.9
2017-Nov-14 20:30N 71°02' E 022°47'2 3.2
2017-Nov-14 20:00N 71°02' E 022°42'2 3.2
2017-Nov-14 19:29N 71°01' E 022°38'2 3.8
2017-Nov-14 19:00N 71°01' E 022°32'2 3.2
2017-Nov-14 18:30N 71°02' E 022°31'2 3.7
2017-Nov-14 17:59N 71°04' E 022°35'2 3.7
2017-Nov-14 17:30N 71°05' E 022°37'2 3.9
2017-Nov-14 17:00N 71°07' E 022°40'2 3.6
2017-Nov-14 16:30N 71°08' E 022°44'2 3.7
2017-Nov-14 16:00N 71°07' E 022°49'2 3.7
2017-Nov-14 15:30N 71°05' E 022°52'2 3.7
2017-Nov-14 15:00N 71°04' E 022°55'2 3.0
2017-Nov-14 14:30N 71°02' E 022°55'2 3.9
2017-Nov-14 14:00N 71°02' E 022°49'2 3.4
2017-Nov-14 13:30N 71°02' E 022°44'2 4.2
2017-Nov-14 13:00N 71°02' E 022°38'2 4.4
2017-Nov-14 12:30N 71°00' E 022°32'3 5.9
2017-Nov-14 12:00N 70°58' E 022°26'2 4.9
2017-Nov-14 11:30N 70°57' E 022°21'2 3.9
2017-Nov-14 11:00N 70°56' E 022°16'2 4.1
2017-Nov-14 10:30N 70°54' E 022°12'0 0.1
2017-Nov-14 10:00N 70°54' E 022°12'2 3.3
2017-Nov-14 09:30N 70°55' E 022°15'2 3.2
2017-Nov-14 09:00N 70°56' E 022°19'1 1.4
2017-Nov-14 08:30N 70°56' E 022°21'2 4.5
2017-Nov-14 08:00N 70°55' E 022°17'1 2.2
2017-Nov-14 07:30N 70°54' E 022°13'2 3.2
2017-Nov-14 07:00N 70°56' E 022°17'1 2.2
2017-Nov-14 06:30N 70°56' E 022°20'0 0.9
2017-Nov-14 06:01N 70°56' E 022°19'2 3.5
2017-Nov-14 05:30N 70°55' E 022°14'0 0.4
2017-Nov-14 05:00N 70°55' E 022°14'2 3.9
2017-Nov-14 04:30N 70°56' E 022°19'2 4.0
2017-Nov-14 04:00N 70°57' E 022°23'0 0.4
2017-Nov-14 03:30N 70°57' E 022°22'0 1.0
2017-Nov-14 03:00N 70°58' E 022°23'1 1.1
2017-Nov-14 02:30N 70°57' E 022°22'1 2.5
2017-Nov-14 02:00N 70°58' E 022°25'2 3.9
2017-Nov-14 01:30N 70°57' E 022°20'0 1.0
2017-Nov-14 01:00N 70°57' E 022°19'1 2.6
2017-Nov-14 00:30N 70°57' E 022°23'2 3.6
2017-Nov-14 00:00N 70°58' E 022°27'2 3.7
2017-Nov-13 23:30N 70°57' E 022°23'2 4.3
2017-Nov-13 23:00N 70°56' E 022°18'2 4.2
2017-Nov-13 22:30N 70°55' E 022°13'1 2.4
2017-Nov-13 22:00N 70°55' E 022°17'0 0.0
2017-Nov-13 02:01N 70°55' E 022°17'1 1.6
2017-Nov-13 01:30N 70°55' E 022°14'2 3.7
2017-Nov-13 01:00N 70°56' E 022°18'2 3.5
2017-Nov-13 00:30N 70°57' E 022°22'2 3.5
2017-Nov-13 00:01N 70°58' E 022°27'1 1.3
2017-Nov-12 23:30N 70°58' E 022°25'2 4.2
2017-Nov-12 23:00N 70°56' E 022°20'2 4.4
2017-Nov-12 22:30N 70°55' E 022°15'2 4.3
2017-Nov-12 22:00N 70°53' E 022°12'1 1.6
2017-Nov-12 21:30N 70°53' E 022°14'1 2.9
2017-Nov-12 21:00N 70°52' E 022°18'1 2.8
2017-Nov-12 20:30N 70°51' E 022°15'2 3.4
2017-Nov-12 20:01N 70°51' E 022°10'1 2.5
2017-Nov-12 19:30N 70°51' E 022°07'2 4.2
2017-Nov-12 19:00N 70°53' E 022°10'4 7.6
2017-Nov-12 18:30N 70°54' E 022°21'1 2.7
2017-Nov-12 18:00N 70°53' E 022°17'2 3.3
2017-Nov-12 17:30N 70°53' E 022°12'1 2.3
2017-Nov-12 17:00N 70°54' E 022°15'1 1.5
2017-Nov-12 16:31N 70°54' E 022°13'2 3.1
2017-Nov-12 16:00N 70°54' E 022°18'2 3.4
2017-Nov-12 15:30N 70°56' E 022°20'2 3.6
2017-Nov-12 15:00N 70°55' E 022°17'1 1.7
2017-Nov-12 14:30N 70°55' E 022°14'2 3.7
2017-Nov-12 14:00N 70°56' E 022°18'1 2.1
2017-Nov-12 13:30N 70°56' E 022°21'2 4.1
2017-Nov-12 13:00N 70°55' E 022°17'2 3.6
2017-Nov-12 12:30N 70°54' E 022°13'2 3.9
2017-Nov-12 12:00N 70°52' E 022°10'1 1.8
2017-Nov-12 11:30N 70°51' E 022°10'1 1.3
2017-Nov-12 11:00N 70°52' E 022°10'1 2.7
2017-Nov-12 10:30N 70°53' E 022°11'3 5.7
2017-Nov-12 10:00N 70°55' E 022°16'3 5.4
2017-Nov-12 09:30N 70°57' E 022°21'2 3.8
2017-Nov-12 09:00N 70°58' E 022°27'1 1.9
2017-Nov-12 08:30N 70°59' E 022°28'2 3.1
2017-Nov-12 08:00N 70°58' E 022°25'2 4.7
2017-Nov-12 07:30N 70°56' E 022°19'2 4.5
2017-Nov-12 07:00N 70°55' E 022°14'2 4.3
2017-Nov-12 06:30N 70°53' E 022°11'2 4.4
2017-Nov-12 06:00N 70°51' E 022°08'2 4.2
2017-Nov-12 05:30N 70°53' E 022°11'4 7.5
2017-Nov-12 05:00N 70°55' E 022°21'2 4.0
2017-Nov-12 04:31N 70°54' E 022°15'1 2.3
2017-Nov-12 04:00N 70°53' E 022°12'2 3.4
2017-Nov-12 03:30N 70°54' E 022°17'2 3.1
2017-Nov-12 03:00N 70°53' E 022°13'2 3.1
2017-Nov-12 02:30N 70°52' E 022°14'2 3.5
2017-Nov-12 02:00N 70°51' E 022°10'1 2.4
2017-Nov-12 01:30N 70°52' E 022°11'1 2.2
2017-Nov-12 01:00N 70°53' E 022°10'1 1.3
2017-Nov-12 00:30N 70°53' E 022°12'1 1.2
2017-Nov-12 00:00N 70°54' E 022°13'1 1.5
2017-Nov-11 23:30N 70°54' E 022°11'1 1.3
2017-Nov-11 23:00N 70°53' E 022°10'2 3.3
2017-Nov-11 22:30N 70°53' E 022°15'1 2.8
2017-Nov-11 22:00N 70°53' E 022°19'1 2.3
2017-Nov-11 21:30N 70°52' E 022°16'2 4.7
2017-Nov-11 21:00N 70°51' E 022°09'3 5.9
2017-Nov-11 20:30N 70°54' E 022°11'2 3.3
2017-Nov-11 20:00N 70°55' E 022°15'1 2.1
2017-Nov-11 19:30N 70°56' E 022°18'1 1.8
2017-Nov-11 19:00N 70°56' E 022°20'2 4.7
2017-Nov-11 18:30N 70°54' E 022°16'1 1.4
2017-Nov-11 18:01N 70°54' E 022°14'2 3.5
2017-Nov-11 17:30N 70°53' E 022°11'1 2.1
2017-Nov-11 17:00N 70°53' E 022°12'1 2.1
2017-Nov-11 16:29N 70°54' E 022°15'0 0.8
2017-Nov-11 16:00N 70°53' E 022°16'2 4.4
2017-Nov-11 15:30N 70°52' E 022°12'2 3.0
2017-Nov-11 15:00N 70°51' E 022°09'1 2.8
2017-Nov-11 14:30N 70°52' E 022°10'1 2.5
2017-Nov-11 14:00N 70°53' E 022°11'1 2.3
2017-Nov-11 13:30N 70°54' E 022°14'1 2.7
2017-Nov-11 13:00N 70°54' E 022°18'0 0.5
2017-Nov-11 12:30N 70°54' E 022°17'2 4.0
2017-Nov-11 12:00N 70°53' E 022°12'0 0.6
2017-Nov-11 11:30N 70°54' E 022°12'2 3.6
2017-Nov-11 11:00N 70°55' E 022°15'2 3.6
2017-Nov-11 10:30N 70°56' E 022°19'1 2.7
2017-Nov-11 10:00N 70°57' E 022°23'1 1.4
2017-Nov-11 09:30N 70°57' E 022°21'2 3.4
2017-Nov-11 09:00N 70°55' E 022°18'2 4.4
2017-Nov-11 08:30N 70°54' E 022°13'0 0.8
2017-Nov-11 08:00N 70°54' E 022°12'4 7.8
2017-Nov-11 07:30N 70°57' E 022°20'4 7.8
2017-Nov-11 07:00N 70°58' E 022°30'4 8.0
2017-Nov-11 06:30N 71°00' E 022°41'4 8.4
2017-Nov-11 06:00N 71°01' E 022°54'1 1.6
2017-Nov-11 05:30N 71°01' E 022°52'2 4.0
2017-Nov-11 05:00N 71°00' E 022°46'2 4.1
2017-Nov-11 04:30N 71°00' E 022°40'2 4.1
2017-Nov-11 04:00N 70°59' E 022°34'2 4.2
2017-Nov-11 03:30N 70°58' E 022°28'2 4.4
2017-Nov-11 03:00N 70°57' E 022°22'3 6.3
2017-Nov-11 02:30N 70°56' E 022°14'1 1.4
2017-Nov-11 02:01N 70°55' E 022°16'2 3.3
2017-Nov-11 01:30N 70°56' E 022°20'1 2.7
2017-Nov-11 01:00N 70°56' E 022°17'2 4.3
2017-Nov-11 00:30N 70°54' E 022°12'0 0.6
2017-Nov-10 23:59N 70°54' E 022°13'1 1.8
2017-Nov-10 23:30N 70°53' E 022°12'1 2.3
2017-Nov-10 23:00N 70°53' E 022°08'1 2.0
2017-Nov-10 22:30N 70°54' E 022°11'1 1.9
2017-Nov-10 22:00N 70°54' E 022°14'2 3.9
2017-Nov-10 21:30N 70°55' E 022°18'3 5.9
2017-Nov-10 21:01N 70°58' E 022°24'1 1.7
2017-Nov-10 20:30N 70°58' E 022°21'1 1.2
2017-Nov-10 20:00N 70°57' E 022°23'0 0.8
2017-Nov-10 19:30N 70°57' E 022°23'2 4.4
2017-Nov-10 19:00N 70°56' E 022°18'2 4.3
2017-Nov-10 18:30N 70°54' E 022°13'2 4.7
2017-Nov-10 18:00N 70°52' E 022°10'4 7.5
2017-Nov-10 17:30N 70°55' E 022°18'3 5.6
2017-Nov-10 17:00N 70°57' E 022°23'2 3.9
2017-Nov-10 16:30N 70°56' E 022°19'2 4.3
2017-Nov-10 16:00N 70°54' E 022°15'2 4.0
2017-Nov-10 15:30N 70°53' E 022°10'2 4.3
2017-Nov-10 15:00N 70°51' E 022°08'2 3.1
2017-Nov-10 14:30N 70°52' E 022°10'0 0.8
2017-Nov-10 14:00N 70°52' E 022°09'1 1.4
2017-Nov-10 13:29N 70°51' E 022°09'1 2.6
2017-Nov-10 13:00N 70°52' E 022°09'2 4.9
2017-Nov-10 12:30N 70°54' E 022°14'1 2.2
2017-Nov-10 12:00N 70°55' E 022°15'2 3.5
2017-Nov-10 11:30N 70°56' E 022°19'1 1.4
2017-Nov-10 11:00N 70°56' E 022°18'2 3.7
2017-Nov-10 10:30N 70°55' E 022°14'1 1.8
2017-Nov-10 10:00N 70°54' E 022°12'1 1.6
2017-Nov-10 09:30N 70°54' E 022°13'2 4.8
2017-Nov-10 09:00N 70°52' E 022°11'1 1.7
2017-Nov-10 08:30N 70°51' E 022°10'1 2.4
2017-Nov-10 08:00N 70°52' E 022°12'1 1.5
2017-Nov-10 07:30N 70°53' E 022°13'0 0.8
2017-Nov-10 07:00N 70°53' E 022°14'1 1.0
2017-Nov-10 06:30N 70°53' E 022°15'0 0.6
2017-Nov-10 06:00N 70°53' E 022°16'1 1.4
2017-Nov-10 05:30N 70°54' E 022°16'1 1.6
2017-Nov-10 05:00N 70°53' E 022°14'1 3.0
2017-Nov-10 04:31N 70°52' E 022°10'2 4.4
2017-Nov-10 04:00N 70°50' E 022°08'2 3.1
2017-Nov-10 03:30N 70°52' E 022°10'3 6.6
2017-Nov-10 03:01N 70°55' E 022°14'2 4.9
2017-Nov-10 02:30N 70°53' E 022°10'2 4.2
2017-Nov-10 02:00N 70°50' E 022°09'1 2.3
2017-Nov-10 01:30N 70°51' E 022°11'1 2.0
2017-Nov-10 01:00N 70°52' E 022°09'2 4.0
2017-Nov-10 00:30N 70°54' E 022°11'4 7.2
2017-Nov-09 23:59N 70°56' E 022°19'1 1.3
2017-Nov-09 23:30N 70°56' E 022°19'2 3.7
2017-Nov-09 23:00N 70°55' E 022°14'0 0.2
2017-Nov-09 22:30N 70°55' E 022°14'2 3.7
2017-Nov-09 22:00N 70°56' E 022°18'1 1.3
2017-Nov-09 21:30N 70°56' E 022°20'2 3.6
2017-Nov-09 21:00N 70°55' E 022°15'1 2.5
2017-Nov-09 20:30N 70°54' E 022°14'4 7.9
2017-Nov-09 20:01N 70°51' E 022°08'3 5.2
2017-Nov-09 19:30N 70°53' E 022°11'2 3.5
2017-Nov-09 19:00N 70°54' E 022°16'2 3.3
2017-Nov-09 18:30N 70°53' E 022°12'1 2.2
2017-Nov-09 18:00N 70°54' E 022°14'2 4.1
2017-Nov-09 17:31N 70°55' E 022°19'1 2.6
2017-Nov-09 17:00N 70°55' E 022°15'2 3.0
2017-Nov-09 16:30N 70°56' E 022°19'1 2.4
2017-Nov-09 16:00N 70°57' E 022°21'3 5.4
2017-Nov-09 15:30N 70°59' E 022°27'2 4.2
2017-Nov-09 15:00N 70°57' E 022°23'2 4.5
2017-Nov-09 14:30N 70°55' E 022°19'2 4.3
2017-Nov-09 14:00N 70°54' E 022°14'2 3.8
2017-Nov-09 13:30N 70°53' E 022°09'1 1.4
2017-Nov-09 13:00N 70°52' E 022°09'2 3.1
2017-Nov-09 12:30N 70°53' E 022°13'1 2.4
2017-Nov-09 12:00N 70°54' E 022°16'2 3.5
2017-Nov-09 11:30N 70°53' E 022°11'1 2.5
2017-Nov-09 11:00N 70°54' E 022°14'0 0.9
2017-Nov-09 10:30N 70°54' E 022°13'2 3.7
2017-Nov-09 10:00N 70°54' E 022°18'2 3.1
2017-Nov-09 09:30N 70°56' E 022°20'1 1.1
2017-Nov-09 09:00N 70°56' E 022°21'1 1.4
2017-Nov-09 08:30N 70°57' E 022°21'1 3.0
2017-Nov-09 08:00N 70°56' E 022°18'2 3.6
2017-Nov-09 07:30N 70°55' E 022°13'1 1.4
2017-Nov-09 07:00N 70°55' E 022°15'2 3.6
2017-Nov-09 06:30N 70°56' E 022°19'1 2.1
2017-Nov-09 06:00N 70°56' E 022°16'1 1.5
2017-Nov-09 05:30N 70°55' E 022°15'4 7.8
2017-Nov-09 05:00N 70°52' E 022°09'1 2.1
2017-Nov-09 04:30N 70°53' E 022°11'2 3.4
2017-Nov-09 04:00N 70°54' E 022°13'2 3.2
2017-Nov-09 03:30N 70°55' E 022°17'2 3.2
2017-Nov-09 03:00N 70°56' E 022°21'1 2.9
2017-Nov-09 02:30N 70°57' E 022°23'2 3.0
2017-Nov-09 02:00N 70°58' E 022°27'2 3.2
2017-Nov-09 01:30N 70°59' E 022°31'2 3.3
2017-Nov-09 01:00N 70°60' E 022°36'0 0.8
2017-Nov-09 00:31N 70°59' E 022°35'2 4.5
2017-Nov-09 00:01N 70°58' E 022°29'2 4.2
2017-Nov-08 23:30N 70°58' E 022°23'1 3.0
2017-Nov-08 23:00N 70°56' E 022°20'2 3.7
2017-Nov-08 22:30N 70°55' E 022°16'1 2.7
2017-Nov-08 22:00N 70°54' E 022°13'2 3.9
2017-Nov-08 21:30N 70°56' E 022°17'2 3.6
2017-Nov-08 21:00N 70°57' E 022°21'2 3.5
2017-Nov-08 20:30N 70°56' E 022°17'2 3.7
2017-Nov-08 20:00N 70°54' E 022°13'1 3.0
2017-Nov-08 19:30N 70°55' E 022°16'1 1.6
2017-Nov-08 19:00N 70°55' E 022°18'1 3.0
2017-Nov-08 18:30N 70°54' E 022°16'2 3.1
2017-Nov-08 18:00N 70°53' E 022°13'0 0.9
2017-Nov-08 17:30N 70°53' E 022°14'1 2.8
2017-Nov-08 17:00N 70°53' E 022°18'1 1.2
2017-Nov-08 16:30N 70°53' E 022°19'2 3.5
2017-Nov-08 16:00N 70°53' E 022°14'0 0.4
2017-Nov-08 15:30N 70°53' E 022°14'1 3.0
2017-Nov-08 15:00N 70°54' E 022°18'2 4.0
2017-Nov-08 14:30N 70°53' E 022°12'1 2.4
2017-Nov-08 14:00N 70°54' E 022°15'0 0.3
2017-Nov-08 13:30N 70°54' E 022°15'3 3.9
2017-Nov-08 12:49N 70°52' E 022°10'0 1.0
2017-Nov-08 12:30N 70°52' E 022°10'0 0.2
2017-Nov-08 11:59N 70°52' E 022°10'2 3.9
2017-Nov-08 11:30N 70°54' E 022°14'2 3.7
2017-Nov-08 11:00N 70°52' E 022°17'3 5.4
2017-Nov-08 10:31N 70°51' E 022°10'3 6.9
2017-Nov-08 10:00N 70°54' E 022°13'0 0.8
2017-Nov-08 09:30N 70°54' E 022°15'2 3.7
2017-Nov-08 09:00N 70°55' E 022°19'2 4.1
2017-Nov-08 08:30N 70°57' E 022°23'2 3.4
2017-Nov-08 08:00N 70°56' E 022°20'2 3.5
2017-Nov-08 07:30N 70°54' E 022°16'1 1.2
2017-Nov-08 07:00N 70°54' E 022°14'2 3.9
2017-Nov-08 06:30N 70°55' E 022°19'2 3.2
2017-Nov-08 06:00N 70°57' E 022°22'2 3.9
2017-Nov-08 05:30N 70°55' E 022°18'3 5.6
2017-Nov-08 05:00N 70°57' E 022°24'4 7.1
2017-Nov-08 04:30N 70°59' E 022°34'3 6.9
2017-Nov-08 04:00N 71°00' E 022°43'0 0.4
2017-Nov-08 03:30N 71°00' E 022°44'2 4.2
2017-Nov-08 03:00N 70°60' E 022°38'2 4.3
2017-Nov-08 02:30N 70°59' E 022°32'2 4.4
2017-Nov-08 02:00N 70°58' E 022°26'2 4.6
2017-Nov-08 01:30N 70°56' E 022°20'2 4.1
2017-Nov-08 01:00N 70°55' E 022°15'2 4.0
2017-Nov-08 00:27N 70°53' E 022°11'2 3.8
2017-Nov-08 00:00N 70°52' E 022°10'2 3.9
2017-Nov-07 23:22N 70°50' E 022°08'2 4.8
2017-Nov-07 23:00N 70°51' E 022°04'5 9.4
2017-Nov-07 22:29N 70°50' E 021°49'5 9.4
2017-Nov-07 22:00N 70°48' E 021°36'20 9.6
2017-Nov-07 19:53N 70°41' E 020°38'4 9.1
2017-Nov-07 19:30N 70°41' E 020°27'1 3.0
2017-Nov-07 19:00N 70°41' E 020°23'3 6.3
2017-Nov-07 18:30N 70°41' E 020°33'3 5.2
2017-Nov-07 18:00N 70°40' E 020°40'2 4.3
2017-Nov-07 17:30N 70°39' E 020°46'1 1.2
2017-Nov-07 17:00N 70°39' E 020°44'1 1.8
2017-Nov-07 16:30N 70°38' E 020°41'0 0.8
2017-Nov-07 16:00N 70°39' E 020°40'2 3.4
2017-Nov-07 15:30N 70°40' E 020°40'2 3.4
2017-Nov-07 15:00N 70°41' E 020°35'2 3.8
2017-Nov-07 14:30N 70°41' E 020°29'2 4.2
2017-Nov-07 14:00N 70°41' E 020°23'1 2.3
2017-Nov-07 13:30N 70°41' E 020°26'3 5.5
2017-Nov-07 13:00N 70°41' E 020°35'2 3.7
2017-Nov-07 12:30N 70°41' E 020°29'1 2.9
2017-Nov-07 12:00N 70°41' E 020°25'2 4.0
2017-Nov-07 11:30N 70°40' E 020°19'2 4.1
2017-Nov-07 11:00N 70°40' E 020°14'1 2.9
2017-Nov-07 10:31N 70°39' E 020°10'2 3.9
2017-Nov-07 10:00N 70°39' E 020°04'2 3.9
2017-Nov-07 09:30N 70°39' E 019°58'2 3.7
2017-Nov-07 08:59N 70°39' E 019°52'2 3.6
2017-Nov-07 08:30N 70°39' E 019°47'2 4.8
2017-Nov-07 08:00N 70°40' E 019°40'11 0.4
2017-Nov-06 02:30N 70°33' E 019°17'2 3.9
2017-Nov-06 02:00N 70°34' E 019°11'2 4.1
2017-Nov-06 01:30N 70°34' E 019°06'2 4.2
2017-Nov-06 01:01N 70°34' E 018°59'2 4.3
2017-Nov-06 00:30N 70°35' E 018°53'1 1.8
2017-Nov-05 23:42N 70°35' E 018°49'11 9.3
2017-Nov-05 22:34N 70°27' E 018°29'110.3
2017-Nov-05 22:30N 70°26' E 018°29'510.0
2017-Nov-05 22:00N 70°22' E 018°20'611.0
2017-Nov-05 21:30N 70°18' E 018°08'  

Dump ship's entire track history